createdAt,value
2023-01-11T00:00:55.668Z,-0.50
2023-01-11T00:03:23.134Z,-0.40
2023-01-11T00:05:50.497Z,-0.20
2023-01-11T00:08:19.492Z,-0.40
2023-01-11T00:10:46.975Z,-0.40
2023-01-11T00:13:15.105Z,-0.20
2023-01-11T00:15:43.144Z,-0.40
2023-01-11T00:18:11.125Z,-0.10
2023-01-11T00:20:42.511Z,-0.10
2023-01-11T00:23:10.285Z,-0.10
2023-01-11T00:25:38.079Z,0.00
2023-01-11T00:28:06.470Z,0.20
2023-01-11T00:30:35.898Z,0.40
2023-01-11T00:33:03.395Z,0.50
2023-01-11T00:35:32.331Z,0.60
2023-01-11T00:37:59.857Z,0.30
2023-01-11T00:40:28.000Z,0.30
2023-01-11T00:43:14.249Z,0.30
2023-01-11T00:46:20.150Z,0.40
2023-01-11T00:48:47.640Z,0.60
2023-01-11T00:51:15.450Z,0.80
2023-01-11T00:53:43.523Z,0.70
2023-01-11T00:56:11.052Z,0.70
2023-01-11T00:58:38.504Z,1.00
2023-01-11T01:01:07.486Z,1.20
2023-01-11T01:03:35.101Z,1.30
2023-01-11T01:06:02.550Z,1.40
2023-01-11T01:08:30.487Z,1.60
2023-01-11T01:10:57.962Z,1.70
2023-01-11T01:13:44.083Z,1.70
2023-01-11T01:16:11.503Z,1.90
2023-01-11T01:18:39.134Z,1.90
2023-01-11T01:21:06.654Z,2.00
2023-01-11T01:23:34.127Z,2.00
2023-01-11T01:26:04.970Z,2.00
2023-01-11T01:28:33.096Z,2.20
2023-01-11T01:31:00.582Z,2.20
2023-01-11T01:33:28.075Z,2.30
2023-01-11T01:35:55.860Z,2.30
2023-01-11T01:38:23.824Z,2.20
2023-01-11T01:40:51.299Z,2.30
2023-01-11T01:43:18.726Z,2.30
2023-01-11T01:45:46.249Z,2.30
2023-01-11T01:48:17.978Z,2.30
2023-01-11T01:50:55.590Z,2.40
2023-01-11T01:53:37.846Z,2.30
2023-01-11T01:56:18.724Z,2.30
2023-01-11T01:58:52.592Z,2.40
2023-01-11T02:01:38.535Z,2.50
2023-01-11T02:04:12.604Z,2.40
2023-01-11T02:06:41.248Z,2.60
2023-01-11T02:09:37.853Z,2.60
2023-01-11T02:12:07.020Z,2.70
2023-01-11T02:14:36.976Z,2.70
2023-01-11T02:17:04.430Z,2.80
2023-01-11T02:19:53.060Z,2.90
2023-01-11T02:22:46.618Z,2.90
2023-01-11T02:26:06.826Z,3.00
2023-01-11T02:29:16.202Z,3.00
2023-01-11T02:32:30.154Z,3.00
2023-01-11T02:35:29.992Z,3.00
2023-01-11T02:38:43.981Z,2.90
2023-01-11T02:41:52.333Z,3.00
2023-01-11T02:44:45.987Z,3.00
2023-01-11T02:47:24.379Z,2.90
2023-01-11T02:50:09.133Z,2.90
2023-01-11T02:52:46.554Z,2.90
2023-01-11T02:55:16.458Z,2.90
2023-01-11T02:57:46.481Z,2.90
2023-01-11T03:00:16.923Z,3.00
2023-01-11T03:02:44.437Z,3.00
2023-01-11T03:05:14.575Z,3.00
2023-01-11T03:08:02.141Z,3.10
2023-01-11T03:11:40.867Z,3.10
2023-01-11T03:14:29.071Z,3.20
2023-01-11T03:17:21.560Z,3.20
2023-01-11T03:19:55.875Z,3.30
2023-01-11T03:22:38.774Z,3.30
2023-01-11T03:25:18.505Z,3.40
2023-01-11T03:28:01.859Z,3.40
2023-01-11T03:30:38.763Z,3.40
2023-01-11T03:33:39.680Z,3.30
2023-01-11T03:36:34.077Z,3.30
2023-01-11T03:39:17.155Z,3.40
2023-01-11T03:41:45.840Z,3.50
2023-01-11T03:44:16.580Z,3.50
2023-01-11T03:46:50.543Z,3.60
2023-01-11T03:49:28.044Z,3.50
2023-01-11T03:51:58.085Z,3.60
2023-01-11T03:54:28.304Z,3.60
2023-01-11T03:57:07.509Z,3.50
2023-01-11T03:59:35.317Z,3.60
2023-01-11T04:02:03.048Z,3.60
2023-01-11T04:04:30.566Z,3.60
2023-01-11T04:06:58.100Z,3.60
2023-01-11T04:09:25.610Z,3.60
2023-01-11T04:11:53.087Z,3.60
2023-01-11T04:14:20.834Z,3.60
2023-01-11T04:16:48.172Z,3.70
2023-01-11T04:19:15.636Z,3.70
2023-01-11T04:21:43.133Z,3.70
2023-01-11T04:24:10.968Z,3.80
2023-01-11T04:26:38.433Z,3.70
2023-01-11T04:29:06.672Z,3.70
2023-01-11T04:31:34.083Z,3.70
2023-01-11T04:34:01.841Z,3.80
2023-01-11T04:36:31.206Z,3.90
2023-01-11T04:38:59.479Z,3.90
2023-01-11T04:41:45.201Z,3.90
2023-01-11T04:44:12.754Z,4.00
2023-01-11T04:46:40.237Z,4.00
2023-01-11T04:49:07.593Z,4.00
2023-01-11T04:51:34.956Z,4.00
2023-01-11T04:54:02.296Z,4.00
2023-01-11T04:56:29.678Z,4.10
2023-01-11T04:58:57.189Z,4.20
2023-01-11T05:01:24.520Z,4.20
2023-01-11T05:03:52.067Z,4.20
2023-01-11T05:06:19.821Z,4.20
2023-01-11T05:08:48.176Z,4.30
2023-01-11T05:11:17.027Z,4.30
2023-01-11T05:13:45.244Z,4.30
2023-01-11T05:16:12.623Z,4.30
2023-01-11T05:19:07.309Z,4.30
2023-01-11T05:21:39.149Z,4.40
2023-01-11T05:24:09.402Z,4.40
2023-01-11T05:26:38.586Z,4.40
2023-01-11T05:29:08.500Z,4.40
2023-01-11T05:31:37.887Z,4.40
2023-01-11T05:34:09.315Z,4.50
2023-01-11T05:36:36.864Z,4.50
2023-01-11T05:39:05.022Z,4.50
2023-01-11T05:41:33.031Z,4.50
2023-01-11T05:44:18.968Z,4.50
2023-01-11T05:46:46.342Z,4.50
2023-01-11T05:49:14.313Z,4.50
2023-01-11T05:51:42.873Z,4.50
2023-01-11T05:54:12.978Z,4.50
2023-01-11T05:56:42.478Z,4.40
2023-01-11T05:59:10.480Z,4.30
2023-01-11T06:01:37.997Z,4.30
2023-01-11T06:04:05.437Z,4.30
2023-01-11T06:06:33.724Z,4.20
2023-01-11T06:09:01.148Z,4.30
2023-01-11T06:11:28.700Z,4.40
2023-01-11T06:13:56.214Z,4.40
2023-01-11T06:16:24.015Z,4.50
2023-01-11T06:18:53.003Z,4.60
2023-01-11T06:21:20.768Z,4.60
2023-01-11T06:23:51.016Z,4.60
2023-01-11T06:26:21.591Z,4.60
2023-01-11T06:28:49.460Z,4.60
2023-01-11T06:31:18.236Z,4.70
2023-01-11T06:33:46.538Z,4.70
2023-01-11T06:36:14.957Z,4.80
2023-01-11T06:38:43.667Z,4.80
2023-01-11T06:41:12.548Z,4.90
2023-01-11T06:43:42.090Z,4.90
2023-01-11T06:46:16.756Z,4.90
2023-01-11T06:48:45.057Z,4.90
2023-01-11T06:51:13.755Z,5.00
2023-01-11T06:53:42.731Z,5.10
2023-01-11T06:56:14.175Z,5.10
2023-01-11T06:58:41.727Z,5.10
2023-01-11T07:01:09.293Z,5.10
2023-01-11T07:03:36.785Z,5.10
2023-01-11T07:06:04.777Z,5.10
2023-01-11T07:08:32.202Z,5.10
2023-01-11T07:10:59.535Z,5.20
2023-01-11T07:13:26.893Z,5.20
2023-01-11T07:15:57.495Z,5.20
2023-01-11T07:18:24.945Z,5.20
2023-01-11T07:20:52.321Z,5.20
2023-01-11T07:23:19.747Z,5.10
2023-01-11T07:25:48.590Z,5.20
2023-01-11T07:28:16.111Z,5.10
2023-01-11T07:30:59.922Z,5.10
2023-01-11T07:33:27.944Z,5.00
2023-01-11T07:35:55.398Z,5.00
2023-01-11T07:38:23.064Z,5.00
2023-01-11T07:40:50.329Z,5.00
2023-01-11T07:43:23.599Z,5.00
2023-01-11T07:45:52.684Z,5.00
2023-01-11T07:48:27.250Z,5.00
2023-01-11T07:50:55.139Z,5.00
2023-01-11T07:53:25.650Z,5.20
2023-01-11T07:55:55.611Z,5.30
2023-01-11T07:58:23.077Z,5.40
2023-01-11T08:00:50.337Z,5.40
2023-01-11T08:03:17.866Z,5.50
2023-01-11T08:05:52.781Z,5.60
2023-01-11T08:08:20.604Z,5.70
2023-01-11T08:11:08.294Z,5.70
2023-01-11T08:13:54.141Z,5.80
2023-01-11T08:16:21.516Z,5.90
2023-01-11T08:18:51.082Z,5.90
2023-01-11T08:21:18.498Z,5.90
2023-01-11T08:23:45.789Z,6.00
2023-01-11T08:26:17.040Z,6.00
2023-01-11T08:28:45.396Z,6.00
2023-01-11T08:31:12.821Z,6.00
2023-01-11T08:33:40.264Z,6.00
2023-01-11T08:36:09.954Z,6.00
2023-01-11T08:38:37.467Z,6.10
2023-01-11T08:41:10.854Z,6.10
2023-01-11T08:43:39.022Z,6.20
2023-01-11T08:46:07.319Z,6.20
2023-01-11T08:48:35.077Z,6.20
2023-01-11T08:51:02.456Z,6.30
2023-01-11T08:53:30.124Z,6.30
2023-01-11T08:55:57.414Z,6.40
2023-01-11T08:58:25.482Z,6.40
2023-01-11T09:00:52.868Z,6.40
2023-01-11T09:03:20.758Z,6.50
2023-01-11T09:05:48.109Z,6.50
2023-01-11T09:08:15.383Z,6.60
2023-01-11T09:10:42.921Z,6.60
2023-01-11T09:13:10.196Z,6.60
2023-01-11T09:15:37.528Z,6.70
2023-01-11T09:18:05.287Z,6.70
2023-01-11T09:20:32.914Z,6.70
2023-01-11T09:23:00.174Z,6.70
2023-01-11T09:25:27.678Z,6.80
2023-01-11T09:27:54.999Z,6.80
2023-01-11T09:30:24.012Z,6.90
2023-01-11T09:32:57.961Z,6.80
2023-01-11T09:35:27.072Z,6.90
2023-01-11T09:37:56.178Z,7.00
2023-01-11T09:40:46.169Z,7.00
2023-01-11T09:43:15.674Z,7.00
2023-01-11T09:45:47.912Z,7.00
2023-01-11T09:48:44.791Z,7.10
2023-01-11T09:51:15.981Z,7.20
2023-01-11T09:53:50.300Z,7.20
2023-01-11T09:56:25.530Z,7.20
2023-01-11T09:59:31.045Z,7.20
2023-01-11T10:02:21.869Z,7.20
2023-01-11T10:05:50.123Z,7.20
2023-01-11T10:18:30.651Z,7.00
2023-01-11T10:19:05.912Z,7.10
2023-01-11T10:22:02.174Z,7.10
2023-01-11T10:25:01.545Z,7.20
2023-01-11T10:27:38.509Z,7.20
2023-01-11T10:30:52.462Z,7.30
2023-01-11T10:34:05.615Z,7.30
2023-01-11T10:37:18.339Z,7.40
2023-01-11T10:40:38.319Z,7.50
2023-01-11T10:43:20.197Z,7.50
2023-01-11T10:45:55.227Z,7.60
2023-01-11T10:48:43.461Z,7.70
2023-01-11T10:51:40.864Z,7.80
2023-01-11T10:54:23.295Z,7.90
2023-01-11T10:57:20.090Z,7.90
2023-01-11T11:00:01.334Z,7.90
2023-01-11T11:03:09.519Z,7.90
2023-01-11T11:06:13.787Z,7.80
2023-01-11T11:09:06.998Z,7.90
2023-01-11T11:12:05.989Z,7.90
2023-01-11T11:15:15.685Z,7.90
2023-01-11T11:17:49.353Z,7.90
2023-01-11T11:20:30.932Z,7.90
2023-01-11T11:22:58.493Z,8.00
2023-01-11T11:25:33.358Z,8.00
2023-01-11T11:28:07.101Z,8.00
2023-01-11T11:30:41.659Z,8.00
2023-01-11T11:33:21.869Z,8.10
2023-01-11T11:36:07.436Z,8.10
2023-01-11T11:38:40.961Z,8.10
2023-01-11T11:41:17.287Z,8.10
2023-01-11T11:43:47.975Z,8.10
2023-01-11T11:46:27.792Z,8.10
2023-01-11T11:49:15.765Z,8.10
2023-01-11T11:51:45.573Z,8.10
2023-01-11T11:54:22.689Z,8.00
2023-01-11T11:56:50.527Z,8.00
2023-01-11T11:59:20.578Z,8.00
2023-01-11T12:01:55.451Z,8.00
2023-01-11T12:04:30.770Z,8.00
2023-01-11T12:07:12.720Z,8.00
2023-01-11T12:09:47.459Z,8.00
2023-01-11T12:12:26.889Z,8.00
2023-01-11T12:15:14.956Z,8.00
2023-01-11T12:17:43.034Z,8.10
2023-01-11T12:20:31.884Z,8.10
2023-01-11T12:23:13.691Z,8.10
2023-01-11T12:26:17.494Z,8.20
2023-01-11T12:29:22.029Z,8.20
2023-01-11T12:32:30.587Z,8.20
2023-01-11T12:35:10.710Z,8.30
2023-01-11T12:37:59.158Z,8.40
2023-01-11T12:40:52.741Z,8.30
2023-01-11T12:43:35.324Z,8.20
2023-01-11T12:46:25.327Z,8.30
2023-01-11T12:49:50.924Z,8.30
2023-01-11T12:52:39.235Z,8.30
2023-01-11T12:55:35.095Z,8.30
2023-01-11T12:58:36.059Z,8.50
2023-01-11T13:01:33.264Z,8.50
2023-01-11T13:04:39.412Z,8.50
2023-01-11T13:07:33.122Z,8.50
2023-01-11T13:10:20.792Z,8.50
2023-01-11T13:13:05.816Z,8.40
2023-01-11T13:15:45.069Z,8.40
2023-01-11T13:18:37.123Z,8.30
2023-01-11T13:21:18.295Z,8.20
2023-01-11T13:24:03.805Z,8.20
2023-01-11T13:26:44.009Z,8.10
2023-01-11T13:29:18.249Z,8.10
2023-01-11T13:31:47.389Z,8.00
2023-01-11T13:34:24.055Z,8.00
2023-01-11T13:36:57.716Z,7.80
2023-01-11T13:39:42.114Z,7.70
2023-01-11T13:42:28.427Z,7.60
2023-01-11T13:45:01.659Z,7.60
2023-01-11T13:47:37.685Z,7.50
2023-01-11T13:50:28.212Z,7.40
2023-01-11T13:53:24.673Z,7.40
2023-01-11T13:56:25.701Z,7.30
2023-01-11T13:58:59.994Z,7.30
2023-01-11T14:02:06.704Z,7.20
2023-01-11T14:05:00.026Z,7.10
2023-01-11T14:08:01.062Z,7.10
2023-01-11T14:10:57.608Z,6.90
2023-01-11T14:14:19.262Z,7.00
2023-01-11T14:20:32.904Z,7.00
2023-01-11T14:23:12.078Z,7.00
2023-01-11T14:26:25.028Z,7.00
2023-01-11T14:32:42.994Z,7.00
2023-01-11T14:35:40.056Z,7.00
2023-01-11T14:38:50.072Z,6.90
2023-01-11T14:42:21.999Z,6.90
2023-01-11T14:45:16.873Z,7.00
2023-01-11T14:48:28.982Z,7.00
2023-01-11T14:51:34.231Z,7.00
2023-01-11T14:54:19.711Z,7.00
2023-01-11T14:56:51.149Z,7.10
2023-01-11T14:59:31.774Z,7.00
2023-01-11T15:02:26.509Z,7.00
2023-01-11T15:05:05.443Z,6.90
2023-01-11T15:07:38.095Z,6.90
2023-01-11T15:10:48.345Z,7.00
2023-01-11T15:13:21.608Z,7.00
2023-01-11T15:16:08.229Z,7.00
2023-01-11T15:18:44.792Z,7.00
2023-01-11T15:21:18.473Z,7.00
2023-01-11T15:23:58.565Z,7.00
2023-01-11T15:26:27.224Z,7.00
2023-01-11T15:29:00.218Z,7.00
2023-01-11T15:31:49.217Z,6.90
2023-01-11T15:34:52.169Z,6.90
2023-01-11T15:37:39.439Z,7.00
2023-01-11T15:40:32.113Z,7.00
2023-01-11T15:43:26.819Z,7.10
2023-01-11T15:46:50.608Z,7.00
2023-01-11T15:49:46.699Z,7.40
2023-01-11T15:52:50.505Z,7.70
2023-01-11T15:55:59.458Z,8.00
2023-01-11T15:58:49.398Z,8.30
2023-01-11T16:01:29.851Z,8.30
2023-01-11T16:04:25.479Z,8.40
2023-01-11T16:07:12.284Z,8.40
2023-01-11T16:10:02.593Z,8.40
2023-01-11T16:13:03.990Z,8.40
2023-01-11T16:16:06.971Z,8.40
2023-01-11T16:18:40.898Z,8.40
2023-01-11T16:21:15.183Z,8.40
2023-01-11T16:23:42.569Z,8.40
2023-01-11T16:26:16.126Z,8.40
2023-01-11T16:28:52.544Z,8.40
2023-01-11T16:31:20.717Z,8.40
2023-01-11T16:33:49.831Z,8.40
2023-01-11T16:36:22.763Z,8.40
2023-01-11T16:39:12.187Z,8.40
2023-01-11T16:41:59.282Z,8.40
2023-01-11T16:44:52.143Z,8.50
2023-01-11T16:47:22.168Z,8.40
2023-01-11T16:50:10.230Z,8.50
2023-01-11T16:52:44.234Z,8.40
2023-01-11T16:55:18.647Z,8.40
2023-01-11T16:57:50.261Z,8.50
2023-01-11T17:00:35.540Z,8.40
2023-01-11T17:03:17.096Z,8.50
2023-01-11T17:06:15.360Z,8.50
2023-01-11T17:08:49.489Z,8.50
2023-01-11T17:11:39.613Z,8.50
2023-01-11T17:14:29.521Z,8.40
2023-01-11T17:17:09.413Z,8.40
2023-01-11T17:19:43.193Z,8.30
2023-01-11T17:22:36.406Z,8.30
2023-01-11T17:25:07.800Z,8.30
2023-01-11T17:27:41.005Z,8.30
2023-01-11T17:30:28.501Z,8.20
2023-01-11T17:32:59.574Z,8.20
2023-01-11T17:35:30.379Z,8.20
2023-01-11T17:37:59.577Z,8.30
2023-01-11T17:40:40.720Z,8.30
2023-01-11T17:43:41.664Z,8.20
2023-01-11T17:46:26.878Z,8.30
2023-01-11T17:48:56.932Z,8.20
2023-01-11T17:51:29.655Z,8.20
2023-01-11T17:53:57.367Z,8.20
2023-01-11T17:56:45.271Z,8.30
2023-01-11T17:59:24.360Z,8.20
2023-01-11T18:01:57.871Z,8.20
2023-01-11T18:04:27.331Z,8.30
2023-01-11T18:07:04.315Z,8.30
2023-01-11T18:09:34.028Z,8.20
2023-01-11T18:12:43.629Z,8.20
2023-01-11T18:15:30.221Z,8.20
2023-01-11T18:17:58.436Z,8.20
2023-01-11T18:20:35.384Z,8.20
2023-01-11T18:23:31.040Z,8.30
2023-01-11T18:26:24.591Z,8.20
2023-01-11T18:28:51.957Z,8.30
2023-01-11T18:31:19.414Z,8.30
2023-01-11T18:33:46.859Z,8.30
2023-01-11T18:36:22.369Z,8.30
2023-01-11T18:38:50.506Z,8.30
2023-01-11T18:41:36.513Z,8.30
2023-01-11T18:44:04.846Z,8.30
2023-01-11T18:46:32.293Z,8.30
2023-01-11T18:49:00.754Z,8.30
2023-01-11T18:51:39.603Z,8.20
2023-01-11T18:54:09.569Z,8.20
2023-01-11T18:56:36.951Z,8.20
2023-01-11T18:59:04.308Z,8.20
2023-01-11T19:01:35.279Z,8.20
2023-01-11T19:04:10.234Z,8.10
2023-01-11T19:06:37.629Z,8.20
2023-01-11T19:09:05.137Z,8.20
2023-01-11T19:11:32.523Z,8.20
2023-01-11T19:13:59.852Z,8.20
2023-01-11T19:16:27.215Z,8.20
2023-01-11T19:18:55.288Z,8.30
2023-01-11T19:21:22.672Z,8.30
2023-01-11T19:23:51.248Z,8.30
2023-01-11T19:26:18.675Z,8.30
2023-01-11T19:28:45.975Z,8.30
2023-01-11T19:31:13.446Z,8.30
2023-01-11T19:33:41.683Z,8.30
2023-01-11T19:36:10.213Z,8.30
2023-01-11T19:38:38.559Z,8.30
2023-01-11T19:41:07.877Z,8.20
2023-01-11T19:43:35.748Z,8.10
2023-01-11T19:46:04.098Z,8.10
2023-01-11T19:48:35.013Z,8.10
2023-01-11T19:51:04.351Z,8.10
2023-01-11T19:53:32.375Z,8.10
2023-01-11T19:56:01.249Z,8.10
2023-01-11T19:58:28.561Z,8.10
2023-01-11T20:00:56.143Z,8.00
2023-01-11T20:03:23.770Z,8.00
2023-01-11T20:05:51.376Z,7.90
2023-01-11T20:08:18.770Z,7.80
2023-01-11T20:10:47.619Z,7.70
2023-01-11T20:13:14.933Z,7.80
2023-01-11T20:15:42.257Z,7.80
2023-01-11T20:18:09.677Z,7.80
2023-01-11T20:20:37.049Z,7.80
2023-01-11T20:23:04.386Z,7.80
2023-01-11T20:25:32.716Z,7.80
2023-01-11T20:28:00.049Z,7.70
2023-01-11T20:30:27.385Z,7.60
2023-01-11T20:32:54.722Z,7.70
2023-01-11T20:35:22.066Z,7.60
2023-01-11T20:37:49.367Z,7.60
2023-01-11T20:40:16.853Z,7.50
2023-01-11T20:42:44.207Z,7.50
2023-01-11T20:45:11.726Z,7.50
2023-01-11T20:47:39.148Z,7.40
2023-01-11T20:50:07.446Z,7.40
2023-01-11T20:52:34.816Z,7.40
2023-01-11T20:55:02.160Z,7.40
2023-01-11T20:57:29.537Z,7.30
2023-01-11T20:59:57.581Z,7.30
2023-01-11T21:02:24.970Z,7.30
2023-01-11T21:04:52.354Z,7.20
2023-01-11T21:07:19.780Z,7.30
2023-01-11T21:09:47.126Z,7.40
2023-01-11T21:12:14.548Z,7.40
2023-01-11T21:14:42.145Z,7.40
2023-01-11T21:17:09.784Z,7.30
2023-01-11T21:19:37.141Z,7.40
2023-01-11T21:22:04.699Z,7.40
2023-01-11T21:24:32.033Z,7.40
2023-01-11T21:26:59.454Z,7.40
2023-01-11T21:29:26.864Z,7.30
2023-01-11T21:31:54.219Z,7.20
2023-01-11T21:34:21.685Z,7.20
2023-01-11T21:36:49.191Z,7.30
2023-01-11T21:39:16.928Z,7.20
2023-01-11T21:41:58.139Z,7.10
2023-01-11T21:44:33.919Z,7.10
2023-01-11T21:47:05.796Z,7.10
2023-01-11T21:49:33.478Z,7.10
2023-01-11T21:52:00.918Z,7.10
2023-01-11T21:54:28.254Z,7.10
2023-01-11T21:56:55.596Z,7.10
2023-01-11T21:59:23.367Z,7.00
2023-01-11T22:01:50.767Z,7.00
2023-01-11T22:04:20.025Z,7.00
2023-01-11T22:06:51.909Z,6.90
2023-01-11T22:09:20.187Z,6.80
2023-01-11T22:11:47.667Z,6.90
2023-01-11T22:14:15.039Z,6.80
2023-01-11T22:16:42.557Z,6.80
2023-01-11T22:19:10.374Z,6.70
2023-01-11T22:21:38.093Z,6.70
2023-01-11T22:24:08.430Z,6.60
2023-01-11T22:26:38.998Z,6.60
2023-01-11T22:29:17.018Z,6.50
2023-01-11T22:31:51.372Z,6.50
2023-01-11T22:34:19.334Z,6.30
2023-01-11T22:36:46.906Z,6.30
2023-01-11T22:39:15.817Z,6.10
2023-01-11T22:41:45.606Z,6.10
2023-01-11T22:44:14.226Z,6.10
2023-01-11T22:46:43.315Z,5.90
2023-01-11T22:49:11.662Z,5.80
2023-01-11T22:51:43.676Z,5.80
2023-01-11T22:54:11.899Z,5.90
2023-01-11T22:56:39.970Z,5.80
2023-01-11T22:59:07.926Z,5.80
2023-01-11T23:01:37.275Z,5.70
2023-01-11T23:04:06.157Z,5.60
2023-01-11T23:06:38.764Z,5.60
2023-01-11T23:09:09.488Z,5.60
2023-01-11T23:11:57.436Z,5.30
2023-01-11T23:14:31.002Z,5.40
2023-01-11T23:17:09.356Z,5.40
2023-01-11T23:19:39.243Z,5.00
2023-01-11T23:22:08.039Z,4.60
2023-01-11T23:24:37.169Z,4.40
2023-01-11T23:27:05.016Z,4.10
2023-01-11T23:29:32.493Z,3.90
2023-01-11T23:31:59.986Z,3.90
2023-01-11T23:34:27.413Z,4.10
2023-01-11T23:36:54.901Z,3.90
2023-01-11T23:39:23.679Z,3.70
2023-01-11T23:42:09.706Z,3.90
2023-01-11T23:44:37.009Z,4.00
2023-01-11T23:47:23.769Z,3.90
2023-01-11T23:49:53.657Z,3.90
2023-01-11T23:52:23.876Z,3.80
2023-01-11T23:54:51.965Z,3.60
2023-01-11T23:57:20.764Z,3.50
2023-01-11T23:59:48.052Z,3.70
